sensor_id;sensor_type;location;lat;lon;timestamp;temperature;humidity
60353;DHT22;46196;52.970;6.954;2023-03-14T00:01:53;10.00;99.90
60353;DHT22;46196;52.970;6.954;2023-03-14T00:04:19;9.80;99.90
60353;DHT22;46196;52.970;6.954;2023-03-14T00:06:44;10.00;99.90
60353;DHT22;46196;52.970;6.954;2023-03-14T00:09:13;10.10;99.90
60353;DHT22;46196;52.970;6.954;2023-03-14T00:11:39;10.20;99.90
60353;DHT22;46196;52.970;6.954;2023-03-14T00:14:05;10.20;99.90
60353;DHT22;46196;52.970;6.954;2023-03-14T00:16:30;10.30;99.90
60353;DHT22;46196;52.970;6.954;2023-03-14T00:18:58;10.30;99.90
60353;DHT22;46196;52.970;6.954;2023-03-14T00:21:24;9.50;99.90
60353;DHT22;46196;52.970;6.954;2023-03-14T00:23:51;10.40;99.90
60353;DHT22;46196;52.970;6.954;2023-03-14T00:26:19;10.50;99.90
60353;DHT22;46196;52.970;6.954;2023-03-14T00:28:46;10.10;99.90
60353;DHT22;46196;52.970;6.954;2023-03-14T00:31:14;10.60;99.90
60353;DHT22;46196;52.970;6.954;2023-03-14T00:33:40;10.60;99.90
60353;DHT22;46196;52.970;6.954;2023-03-14T00:36:09;10.60;99.90
60353;DHT22;46196;52.970;6.954;2023-03-14T00:38:36;10.60;99.90
60353;DHT22;46196;52.970;6.954;2023-03-14T00:41:09;10.70;99.90
60353;DHT22;46196;52.970;6.954;2023-03-14T00:43:36;10.70;99.90
60353;DHT22;46196;52.970;6.954;2023-03-14T00:46:02;10.70;99.90
60353;DHT22;46196;52.970;6.954;2023-03-14T00:48:28;10.70;99.90
60353;DHT22;46196;52.970;6.954;2023-03-14T00:50:54;10.70;99.90
60353;DHT22;46196;52.970;6.954;2023-03-14T00:53:20;9.90;99.90
60353;DHT22;46196;52.970;6.954;2023-03-14T00:55:46;10.70;99.90
60353;DHT22;46196;52.970;6.954;2023-03-14T00:58:14;10.80;99.90
60353;DHT22;46196;52.970;6.954;2023-03-14T01:00:40;9.90;99.90
60353;DHT22;46196;52.970;6.954;2023-03-14T01:03:07;10.90;99.90
60353;DHT22;46196;52.970;6.954;2023-03-14T01:05:33;9.40;99.90
60353;DHT22;46196;52.970;6.954;2023-03-14T01:08:00;10.00;99.90
60353;DHT22;46196;52.970;6.954;2023-03-14T01:10:25;10.80;99.90
60353;DHT22;46196;52.970;6.954;2023-03-14T01:12:51;10.40;99.90
60353;DHT22;46196;52.970;6.954;2023-03-14T01:15:17;10.80;99.90
60353;DHT22;46196;52.970;6.954;2023-03-14T01:17:43;10.80;99.90
60353;DHT22;46196;52.970;6.954;2023-03-14T01:20:12;10.80;99.90
60353;DHT22;46196;52.970;6.954;2023-03-14T01:22:39;10.80;99.90
60353;DHT22;46196;52.970;6.954;2023-03-14T01:25:08;10.80;99.90
60353;DHT22;46196;52.970;6.954;2023-03-14T01:27:34;10.80;99.90
60353;DHT22;46196;52.970;6.954;2023-03-14T01:30:00;10.80;99.90
60353;DHT22;46196;52.970;6.954;2023-03-14T01:32:26;10.80;99.90
60353;DHT22;46196;52.970;6.954;2023-03-14T01:34:52;12.80;99.90
60353;DHT22;46196;52.970;6.954;2023-03-14T01:37:17;10.70;99.90
60353;DHT22;46196;52.970;6.954;2023-03-14T01:39:43;10.60;99.90
60353;DHT22;46196;52.970;6.954;2023-03-14T01:42:09;10.70;99.90
60353;DHT22;46196;52.970;6.954;2023-03-14T01:44:52;10.60;99.90
60353;DHT22;46196;52.970;6.954;2023-03-14T01:47:19;10.60;99.90
60353;DHT22;46196;52.970;6.954;2023-03-14T01:49:48;10.10;99.90
60353;DHT22;46196;52.970;6.954;2023-03-14T01:52:25;10.60;99.90
60353;DHT22;46196;52.970;6.954;2023-03-14T01:54:59;10.20;99.90
60353;DHT22;46196;52.970;6.954;2023-03-14T02:00:21;10.50;99.90
60353;DHT22;46196;52.970;6.954;2023-03-14T02:02:49;10.50;99.90
60353;DHT22;46196;52.970;6.954;2023-03-14T02:05:19;10.10;99.90
60353;DHT22;46196;52.970;6.954;2023-03-14T02:07:56;10.50;99.90
60353;DHT22;46196;52.970;6.954;2023-03-14T02:10:25;10.00;99.90
60353;DHT22;46196;52.970;6.954;2023-03-14T02:12:52;9.90;99.90
60353;DHT22;46196;52.970;6.954;2023-03-14T02:15:19;10.60;99.90
60353;DHT22;46196;52.970;6.954;2023-03-14T02:17:45;10.40;99.90
60353;DHT22;46196;52.970;6.954;2023-03-14T02:22:46;10.50;99.90
60353;DHT22;46196;52.970;6.954;2023-03-14T02:27:50;10.50;99.90
60353;DHT22;46196;52.970;6.954;2023-03-14T02:30:28;10.60;99.90
60353;DHT22;46196;52.970;6.954;2023-03-14T02:32:58;10.60;99.90
60353;DHT22;46196;52.970;6.954;2023-03-14T02:35:28;10.00;99.90
60353;DHT22;46196;52.970;6.954;2023-03-14T02:38:13;10.60;99.90
60353;DHT22;46196;52.970;6.954;2023-03-14T02:40:41;10.60;99.90
60353;DHT22;46196;52.970;6.954;2023-03-14T02:43:06;10.60;99.90
60353;DHT22;46196;52.970;6.954;2023-03-14T02:45:38;10.60;99.90
60353;DHT22;46196;52.970;6.954;2023-03-14T02:48:09;10.90;99.90
60353;DHT22;46196;52.970;6.954;2023-03-14T02:50:37;10.60;99.90
60353;DHT22;46196;52.970;6.954;2023-03-14T02:53:03;10.60;99.90
60353;DHT22;46196;52.970;6.954;2023-03-14T02:55:29;10.00;99.90
60353;DHT22;46196;52.970;6.954;2023-03-14T02:57:55;10.60;99.90
60353;DHT22;46196;52.970;6.954;2023-03-14T03:00:21;12.60;99.90
60353;DHT22;46196;52.970;6.954;2023-03-14T03:02:47;10.60;99.90
60353;DHT22;46196;52.970;6.954;2023-03-14T03:05:13;10.50;99.90
60353;DHT22;46196;52.970;6.954;2023-03-14T03:07:38;10.20;99.90
60353;DHT22;46196;52.970;6.954;2023-03-14T03:10:04;10.50;99.90
60353;DHT22;46196;52.970;6.954;2023-03-14T03:12:30;12.10;99.90
60353;DHT22;46196;52.970;6.954;2023-03-14T03:14:56;10.40;99.90
60353;DHT22;46196;52.970;6.954;2023-03-14T03:17:22;9.60;99.90
60353;DHT22;46196;52.970;6.954;2023-03-14T03:19:47;10.30;99.90
60353;DHT22;46196;52.970;6.954;2023-03-14T03:22:13;10.30;99.90
60353;DHT22;46196;52.970;6.954;2023-03-14T03:24:39;9.90;99.90
60353;DHT22;46196;52.970;6.954;2023-03-14T03:27:05;9.10;99.90
60353;DHT22;46196;52.970;6.954;2023-03-14T03:29:30;10.20;99.90
60353;DHT22;46196;52.970;6.954;2023-03-14T03:31:56;11.40;99.90
60353;DHT22;46196;52.970;6.954;2023-03-14T03:34:22;10.20;99.90
60353;DHT22;46196;52.970;6.954;2023-03-14T03:36:48;10.20;99.90
60353;DHT22;46196;52.970;6.954;2023-03-14T03:39:13;10.30;99.90
60353;DHT22;46196;52.970;6.954;2023-03-14T03:41:39;10.10;99.90
60353;DHT22;46196;52.970;6.954;2023-03-14T03:44:05;10.10;99.90
60353;DHT22;46196;52.970;6.954;2023-03-14T03:46:31;9.80;99.90
60353;DHT22;46196;52.970;6.954;2023-03-14T03:48:59;9.50;99.90
60353;DHT22;46196;52.970;6.954;2023-03-14T03:51:26;11.30;99.90
60353;DHT22;46196;52.970;6.954;2023-03-14T03:53:52;9.90;99.90
60353;DHT22;46196;52.970;6.954;2023-03-14T03:56:18;9.90;99.90
60353;DHT22;46196;52.970;6.954;2023-03-14T03:58:44;9.90;99.90
60353;DHT22;46196;52.970;6.954;2023-03-14T04:01:10;9.90;99.90
60353;DHT22;46196;52.970;6.954;2023-03-14T04:03:36;9.90;99.90
60353;DHT22;46196;52.970;6.954;2023-03-14T04:06:07;9.50;99.90
60353;DHT22;46196;52.970;6.954;2023-03-14T04:08:33;11.00;99.90
60353;DHT22;46196;52.970;6.954;2023-03-14T04:11:00;9.90;99.90
60353;DHT22;46196;52.970;6.954;2023-03-14T04:13:27;9.70;99.90
60353;DHT22;46196;52.970;6.954;2023-03-14T04:15:53;10.20;99.90
60353;DHT22;46196;52.970;6.954;2023-03-14T04:18:20;9.80;99.90
60353;DHT22;46196;52.970;6.954;2023-03-14T04:20:53;9.70;99.90
60353;DHT22;46196;52.970;6.954;2023-03-14T04:23:20;9.80;99.90
60353;DHT22;46196;52.970;6.954;2023-03-14T04:25:46;9.80;99.90
60353;DHT22;46196;52.970;6.954;2023-03-14T04:28:11;9.80;99.90
60353;DHT22;46196;52.970;6.954;2023-03-14T04:30:37;8.50;99.90
60353;DHT22;46196;52.970;6.954;2023-03-14T04:33:03;11.60;99.90
60353;DHT22;46196;52.970;6.954;2023-03-14T04:35:30;8.60;99.90
60353;DHT22;46196;52.970;6.954;2023-03-14T04:37:57;9.60;99.90
60353;DHT22;46196;52.970;6.954;2023-03-14T04:40:22;9.60;99.90
60353;DHT22;46196;52.970;6.954;2023-03-14T04:42:48;9.60;99.90
60353;DHT22;46196;52.970;6.954;2023-03-14T04:45:14;9.50;99.90
60353;DHT22;46196;52.970;6.954;2023-03-14T04:47:40;9.50;99.90
60353;DHT22;46196;52.970;6.954;2023-03-14T04:50:06;9.60;99.90
60353;DHT22;46196;52.970;6.954;2023-03-14T04:52:32;9.50;99.90
60353;DHT22;46196;52.970;6.954;2023-03-14T04:54:57;9.50;99.90
60353;DHT22;46196;52.970;6.954;2023-03-14T04:57:23;9.60;99.90
60353;DHT22;46196;52.970;6.954;2023-03-14T04:59:49;9.60;99.90
60353;DHT22;46196;52.970;6.954;2023-03-14T05:02:15;9.60;99.90
60353;DHT22;46196;52.970;6.954;2023-03-14T05:04:40;9.60;99.90
60353;DHT22;46196;52.970;6.954;2023-03-14T05:07:06;9.40;99.90
60353;DHT22;46196;52.970;6.954;2023-03-14T05:09:32;9.40;99.90
60353;DHT22;46196;52.970;6.954;2023-03-14T05:11:57;8.90;99.90
60353;DHT22;46196;52.970;6.954;2023-03-14T05:14:23;8.80;99.90
60353;DHT22;46196;52.970;6.954;2023-03-14T05:16:49;9.30;99.90
60353;DHT22;46196;52.970;6.954;2023-03-14T05:19:15;9.50;99.90
60353;DHT22;46196;52.970;6.954;2023-03-14T05:21:40;9.20;99.90
60353;DHT22;46196;52.970;6.954;2023-03-14T05:24:06;9.20;99.90
60353;DHT22;46196;52.970;6.954;2023-03-14T05:26:32;8.70;99.90
60353;DHT22;46196;52.970;6.954;2023-03-14T05:28:58;11.10;99.90
60353;DHT22;46196;52.970;6.954;2023-03-14T05:31:24;10.10;99.90
60353;DHT22;46196;52.970;6.954;2023-03-14T05:33:49;10.10;99.90
60353;DHT22;46196;52.970;6.954;2023-03-14T05:36:15;9.20;99.90
60353;DHT22;46196;52.970;6.954;2023-03-14T05:38:41;9.00;99.90
60353;DHT22;46196;52.970;6.954;2023-03-14T05:41:07;9.20;99.90
60353;DHT22;46196;52.970;6.954;2023-03-14T05:43:33;7.70;99.90
60353;DHT22;46196;52.970;6.954;2023-03-14T05:45:59;9.80;99.90
60353;DHT22;46196;52.970;6.954;2023-03-14T05:48:24;9.80;99.90
60353;DHT22;46196;52.970;6.954;2023-03-14T05:50:57;9.20;99.90
60353;DHT22;46196;52.970;6.954;2023-03-14T05:53:23;10.00;99.90
60353;DHT22;46196;52.970;6.954;2023-03-14T05:55:55;9.20;99.90
60353;DHT22;46196;52.970;6.954;2023-03-14T05:58:21;8.70;99.90
60353;DHT22;46196;52.970;6.954;2023-03-14T06:00:48;9.60;99.90
60353;DHT22;46196;52.970;6.954;2023-03-14T06:03:14;9.20;99.90
60353;DHT22;46196;52.970;6.954;2023-03-14T06:05:40;9.20;99.90
60353;DHT22;46196;52.970;6.954;2023-03-14T06:08:06;9.20;99.90
60353;DHT22;46196;52.970;6.954;2023-03-14T06:10:31;8.80;99.90
60353;DHT22;46196;52.970;6.954;2023-03-14T06:12:58;8.00;99.90
60353;DHT22;46196;52.970;6.954;2023-03-14T06:15:23;9.10;99.90
60353;DHT22;46196;52.970;6.954;2023-03-14T06:17:49;9.10;99.90
60353;DHT22;46196;52.970;6.954;2023-03-14T06:20:15;8.70;99.90
60353;DHT22;46196;52.970;6.954;2023-03-14T06:22:41;8.90;99.90
60353;DHT22;46196;52.970;6.954;2023-03-14T06:25:09;9.20;99.90
60353;DHT22;46196;52.970;6.954;2023-03-14T06:27:35;9.10;99.90
60353;DHT22;46196;52.970;6.954;2023-03-14T06:32:27;9.10;99.90
60353;DHT22;46196;52.970;6.954;2023-03-14T06:34:53;10.60;99.90
60353;DHT22;46196;52.970;6.954;2023-03-14T06:37:19;9.10;99.90
60353;DHT22;46196;52.970;6.954;2023-03-14T06:39:45;9.20;99.90
60353;DHT22;46196;52.970;6.954;2023-03-14T06:42:10;8.40;99.90
60353;DHT22;46196;52.970;6.954;2023-03-14T06:44:36;8.20;99.90
60353;DHT22;46196;52.970;6.954;2023-03-14T06:47:02;9.90;99.90
60353;DHT22;46196;52.970;6.954;2023-03-14T06:49:28;9.10;99.90
60353;DHT22;46196;52.970;6.954;2023-03-14T06:51:54;9.10;99.90
60353;DHT22;46196;52.970;6.954;2023-03-14T06:54:20;8.30;99.90
60353;DHT22;46196;52.970;6.954;2023-03-14T06:56:46;9.10;99.90
60353;DHT22;46196;52.970;6.954;2023-03-14T06:59:11;9.10;99.90
60353;DHT22;46196;52.970;6.954;2023-03-14T07:01:37;8.60;99.90
60353;DHT22;46196;52.970;6.954;2023-03-14T07:04:03;9.10;99.90
60353;DHT22;46196;52.970;6.954;2023-03-14T07:06:29;9.10;99.90
60353;DHT22;46196;52.970;6.954;2023-03-14T07:08:55;9.10;99.90
60353;DHT22;46196;52.970;6.954;2023-03-14T07:11:22;8.90;99.90
60353;DHT22;46196;52.970;6.954;2023-03-14T07:13:48;9.20;99.90
60353;DHT22;46196;52.970;6.954;2023-03-14T07:16:14;8.70;99.90
60353;DHT22;46196;52.970;6.954;2023-03-14T07:18:40;10.70;99.90
60353;DHT22;46196;52.970;6.954;2023-03-14T07:21:06;9.20;99.90
60353;DHT22;46196;52.970;6.954;2023-03-14T07:23:33;9.40;99.90
60353;DHT22;46196;52.970;6.954;2023-03-14T07:25:59;9.20;99.90
60353;DHT22;46196;52.970;6.954;2023-03-14T07:28:25;8.60;99.90
60353;DHT22;46196;52.970;6.954;2023-03-14T07:30:53;8.50;99.90
60353;DHT22;46196;52.970;6.954;2023-03-14T07:33:19;10.60;99.90
60353;DHT22;46196;52.970;6.954;2023-03-14T07:35:47;9.00;99.90
60353;DHT22;46196;52.970;6.954;2023-03-14T07:40:40;8.30;99.90
60353;DHT22;46196;52.970;6.954;2023-03-14T07:43:06;7.90;99.90
60353;DHT22;46196;52.970;6.954;2023-03-14T07:45:32;6.50;99.90
60353;DHT22;46196;52.970;6.954;2023-03-14T07:47:58;7.10;99.90
60353;DHT22;46196;52.970;6.954;2023-03-14T07:50:24;7.60;99.90
60353;DHT22;46196;52.970;6.954;2023-03-14T07:52:50;7.10;99.90
60353;DHT22;46196;52.970;6.954;2023-03-14T07:57:42;6.70;99.90
60353;DHT22;46196;52.970;6.954;2023-03-14T08:00:08;6.70;99.90
60353;DHT22;46196;52.970;6.954;2023-03-14T08:02:35;6.00;99.90
60353;DHT22;46196;52.970;6.954;2023-03-14T08:05:03;6.00;99.90
60353;DHT22;46196;52.970;6.954;2023-03-14T08:07:29;5.50;99.90
60353;DHT22;46196;52.970;6.954;2023-03-14T08:09:55;5.30;99.90
60353;DHT22;46196;52.970;6.954;2023-03-14T08:12:21;5.70;99.90
60353;DHT22;46196;52.970;6.954;2023-03-14T08:14:46;5.40;99.90
60353;DHT22;46196;52.970;6.954;2023-03-14T08:17:12;4.50;99.90
60353;DHT22;46196;52.970;6.954;2023-03-14T08:19:38;6.40;99.90
60353;DHT22;46196;52.970;6.954;2023-03-14T08:22:04;4.80;99.90
60353;DHT22;46196;52.970;6.954;2023-03-14T08:24:30;4.10;99.90
60353;DHT22;46196;52.970;6.954;2023-03-14T08:26:56;5.00;99.90
60353;DHT22;46196;52.970;6.954;2023-03-14T08:29:22;3.70;99.90
60353;DHT22;46196;52.970;6.954;2023-03-14T08:31:48;4.30;99.90
60353;DHT22;46196;52.970;6.954;2023-03-14T08:34:15;4.70;99.90
60353;DHT22;46196;52.970;6.954;2023-03-14T08:36:41;3.90;99.90
60353;DHT22;46196;52.970;6.954;2023-03-14T08:39:07;4.80;99.90
60353;DHT22;46196;52.970;6.954;2023-03-14T08:41:33;5.40;99.90
60353;DHT22;46196;52.970;6.954;2023-03-14T08:44:06;4.80;99.90
60353;DHT22;46196;52.970;6.954;2023-03-14T08:46:32;6.70;99.90
60353;DHT22;46196;52.970;6.954;2023-03-14T08:48:58;7.20;99.90
60353;DHT22;46196;52.970;6.954;2023-03-14T08:51:23;6.60;99.90
60353;DHT22;46196;52.970;6.954;2023-03-14T08:53:49;4.70;99.90
60353;DHT22;46196;52.970;6.954;2023-03-14T08:56:15;6.20;99.90
60353;DHT22;46196;52.970;6.954;2023-03-14T08:58:41;6.70;99.90
60353;DHT22;46196;52.970;6.954;2023-03-14T09:01:09;3.60;99.90
60353;DHT22;46196;52.970;6.954;2023-03-14T09:03:35;5.00;99.90
60353;DHT22;46196;52.970;6.954;2023-03-14T09:06:05;4.30;99.90
60353;DHT22;46196;52.970;6.954;2023-03-14T09:08:31;4.90;99.90
60353;DHT22;46196;52.970;6.954;2023-03-14T09:10:57;4.30;99.90
60353;DHT22;46196;52.970;6.954;2023-03-14T09:13:23;4.40;99.90
60353;DHT22;46196;52.970;6.954;2023-03-14T09:15:53;5.10;99.90
60353;DHT22;46196;52.970;6.954;2023-03-14T09:18:19;7.10;99.90
60353;DHT22;46196;52.970;6.954;2023-03-14T09:23:10;6.10;99.90
60353;DHT22;46196;52.970;6.954;2023-03-14T09:25:36;5.50;99.90
60353;DHT22;46196;52.970;6.954;2023-03-14T09:28:02;5.40;99.90
60353;DHT22;46196;52.970;6.954;2023-03-14T09:30:28;5.60;99.90
60353;DHT22;46196;52.970;6.954;2023-03-14T09:32:54;4.60;99.90
60353;DHT22;46196;52.970;6.954;2023-03-14T09:35:19;7.10;99.90
60353;DHT22;46196;52.970;6.954;2023-03-14T09:37:45;5.40;99.90
60353;DHT22;46196;52.970;6.954;2023-03-14T09:40:16;4.50;99.90
60353;DHT22;46196;52.970;6.954;2023-03-14T09:42:43;5.70;99.90
60353;DHT22;46196;52.970;6.954;2023-03-14T09:45:34;5.60;99.90
60353;DHT22;46196;52.970;6.954;2023-03-14T09:48:02;5.60;99.90
60353;DHT22;46196;52.970;6.954;2023-03-14T09:50:44;5.80;99.90
60353;DHT22;46196;52.970;6.954;2023-03-14T09:53:20;5.50;99.90
60353;DHT22;46196;52.970;6.954;2023-03-14T09:55:48;5.50;99.90
60353;DHT22;46196;52.970;6.954;2023-03-14T09:58:19;7.10;99.90
60353;DHT22;46196;52.970;6.954;2023-03-14T10:00:45;6.00;99.90
60353;DHT22;46196;52.970;6.954;2023-03-14T10:05:38;6.00;99.90
60353;DHT22;46196;52.970;6.954;2023-03-14T10:08:04;6.60;99.90
60353;DHT22;46196;52.970;6.954;2023-03-14T10:10:31;6.60;99.90
60353;DHT22;46196;52.970;6.954;2023-03-14T10:13:13;6.80;99.90
60353;DHT22;46196;52.970;6.954;2023-03-14T10:15:39;6.70;99.90
60353;DHT22;46196;52.970;6.954;2023-03-14T10:18:11;6.30;99.90
60353;DHT22;46196;52.970;6.954;2023-03-14T10:20:46;6.70;99.90
60353;DHT22;46196;52.970;6.954;2023-03-14T10:25:46;7.00;99.90
60353;DHT22;46196;52.970;6.954;2023-03-14T10:30:51;6.60;99.90
60353;DHT22;46196;52.970;6.954;2023-03-14T10:33:31;8.30;99.90
60353;DHT22;46196;52.970;6.954;2023-03-14T10:38:33;8.30;99.90
60353;DHT22;46196;52.970;6.954;2023-03-14T10:40:59;6.60;99.90
60353;DHT22;46196;52.970;6.954;2023-03-14T10:43:30;7.50;99.90
60353;DHT22;46196;52.970;6.954;2023-03-14T10:45:59;8.00;99.90
60353;DHT22;46196;52.970;6.954;2023-03-14T10:48:37;7.20;99.90
60353;DHT22;46196;52.970;6.954;2023-03-14T10:51:30;6.70;99.90
60353;DHT22;46196;52.970;6.954;2023-03-14T10:54:13;7.80;99.90
60353;DHT22;46196;52.970;6.954;2023-03-14T10:56:39;6.50;99.90
60353;DHT22;46196;52.970;6.954;2023-03-14T10:59:13;6.70;99.90
60353;DHT22;46196;52.970;6.954;2023-03-14T11:01:59;7.10;99.90
60353;DHT22;46196;52.970;6.954;2023-03-14T11:04:44;6.80;99.90
60353;DHT22;46196;52.970;6.954;2023-03-14T11:07:54;6.10;99.90
60353;DHT22;46196;52.970;6.954;2023-03-14T11:10:21;8.30;99.90
60353;DHT22;46196;52.970;6.954;2023-03-14T11:29:39;7.70;99.90
60353;DHT22;46196;52.970;6.954;2023-03-14T11:35:08;6.80;99.90
60353;DHT22;46196;52.970;6.954;2023-03-14T11:37:46;7.50;99.90
60353;DHT22;46196;52.970;6.954;2023-03-14T11:40:19;7.00;99.90
60353;DHT22;46196;52.970;6.954;2023-03-14T11:42:55;7.30;99.90
60353;DHT22;46196;52.970;6.954;2023-03-14T11:45:38;6.40;99.90
60353;DHT22;46196;52.970;6.954;2023-03-14T11:48:14;7.20;99.90
60353;DHT22;46196;52.970;6.954;2023-03-14T11:50:43;7.90;99.90
60353;DHT22;46196;52.970;6.954;2023-03-14T11:53:16;8.30;99.90
60353;DHT22;46196;52.970;6.954;2023-03-14T11:55:44;7.20;99.90
60353;DHT22;46196;52.970;6.954;2023-03-14T11:58:27;7.70;99.90
60353;DHT22;46196;52.970;6.954;2023-03-14T12:00:56;7.70;99.90
60353;DHT22;46196;52.970;6.954;2023-03-14T12:09:00;7.10;99.90
60353;DHT22;46196;52.970;6.954;2023-03-14T12:11:48;6.70;99.90
60353;DHT22;46196;52.970;6.954;2023-03-14T12:14:28;9.60;99.90
60353;DHT22;46196;52.970;6.954;2023-03-14T12:16:57;9.40;99.90
60353;DHT22;46196;52.970;6.954;2023-03-14T12:19:26;8.00;99.90
60353;DHT22;46196;52.970;6.954;2023-03-14T12:25:15;8.30;95.80
60353;DHT22;46196;52.970;6.954;2023-03-14T12:27:50;8.20;97.70
60353;DHT22;46196;52.970;6.954;2023-03-14T12:30:39;8.00;99.90
60353;DHT22;46196;52.970;6.954;2023-03-14T12:38:14;8.60;98.20
60353;DHT22;46196;52.970;6.954;2023-03-14T12:43:45;8.70;99.90
60353;DHT22;46196;52.970;6.954;2023-03-14T12:48:55;9.00;95.70
60353;DHT22;46196;52.970;6.954;2023-03-14T12:57:06;8.50;99.90
60353;DHT22;46196;52.970;6.954;2023-03-14T13:02:38;8.50;99.90
60353;DHT22;46196;52.970;6.954;2023-03-14T13:05:19;8.40;99.90
60353;DHT22;46196;52.970;6.954;2023-03-14T13:10:21;7.90;99.90
60353;DHT22;46196;52.970;6.954;2023-03-14T13:13:08;7.30;99.90
60353;DHT22;46196;52.970;6.954;2023-03-14T13:15:45;8.20;99.90
60353;DHT22;46196;52.970;6.954;2023-03-14T13:18:23;8.20;99.90
60353;DHT22;46196;52.970;6.954;2023-03-14T13:21:14;8.20;99.90
60353;DHT22;46196;52.970;6.954;2023-03-14T13:23:41;6.90;99.90
60353;DHT22;46196;52.970;6.954;2023-03-14T13:26:18;7.00;99.90
60353;DHT22;46196;52.970;6.954;2023-03-14T13:28:44;7.80;99.90
60353;DHT22;46196;52.970;6.954;2023-03-14T13:31:25;7.10;99.90
60353;DHT22;46196;52.970;6.954;2023-03-14T13:33:58;7.70;99.90
60353;DHT22;46196;52.970;6.954;2023-03-14T13:36:25;8.50;97.20
60353;DHT22;46196;52.970;6.954;2023-03-14T13:39:01;8.00;99.90
60353;DHT22;46196;52.970;6.954;2023-03-14T13:41:28;7.90;98.10
60353;DHT22;46196;52.970;6.954;2023-03-14T13:44:05;8.00;99.90
60353;DHT22;46196;52.970;6.954;2023-03-14T13:46:34;7.20;99.00
60353;DHT22;46196;52.970;6.954;2023-03-14T13:49:05;6.90;99.20
60353;DHT22;46196;52.970;6.954;2023-03-14T13:51:32;8.10;98.50
60353;DHT22;46196;52.970;6.954;2023-03-14T13:54:01;8.60;91.60
60353;DHT22;46196;52.970;6.954;2023-03-14T13:56:32;9.60;90.20
60353;DHT22;46196;52.970;6.954;2023-03-14T13:58:58;7.10;93.90
60353;DHT22;46196;52.970;6.954;2023-03-14T14:01:35;7.40;92.10
60353;DHT22;46196;52.970;6.954;2023-03-14T14:04:08;6.70;80.80
60353;DHT22;46196;52.970;6.954;2023-03-14T14:06:38;7.70;83.80
60353;DHT22;46196;52.970;6.954;2023-03-14T14:09:35;6.80;76.30
60353;DHT22;46196;52.970;6.954;2023-03-14T14:12:08;7.80;76.60
60353;DHT22;46196;52.970;6.954;2023-03-14T14:17:11;7.90;90.50
60353;DHT22;46196;52.970;6.954;2023-03-14T14:19:39;8.50;84.20
60353;DHT22;46196;52.970;6.954;2023-03-14T14:22:07;8.20;85.50
60353;DHT22;46196;52.970;6.954;2023-03-14T14:24:34;7.20;78.00
60353;DHT22;46196;52.970;6.954;2023-03-14T14:27:18;8.50;89.80
60353;DHT22;46196;52.970;6.954;2023-03-14T14:29:59;9.10;84.10
60353;DHT22;46196;52.970;6.954;2023-03-14T14:32:26;8.20;73.60
60353;DHT22;46196;52.970;6.954;2023-03-14T14:39:52;8.70;76.40
60353;DHT22;46196;52.970;6.954;2023-03-14T14:42:20;8.20;81.10
60353;DHT22;46196;52.970;6.954;2023-03-14T14:44:50;8.60;83.30
60353;DHT22;46196;52.970;6.954;2023-03-14T14:47:20;8.10;80.70
60353;DHT22;46196;52.970;6.954;2023-03-14T14:49:47;8.30;78.10
60353;DHT22;46196;52.970;6.954;2023-03-14T14:52:16;7.80;81.10
60353;DHT22;46196;52.970;6.954;2023-03-14T14:54:45;8.20;83.80
60353;DHT22;46196;52.970;6.954;2023-03-14T14:57:24;8.00;90.20
60353;DHT22;46196;52.970;6.954;2023-03-14T14:59:50;8.30;76.80
60353;DHT22;46196;52.970;6.954;2023-03-14T15:02:36;7.80;75.30
60353;DHT22;46196;52.970;6.954;2023-03-14T15:05:08;7.50;61.30
60353;DHT22;46196;52.970;6.954;2023-03-14T15:07:37;7.20;69.70
60353;DHT22;46196;52.970;6.954;2023-03-14T15:10:03;6.80;66.70
60353;DHT22;46196;52.970;6.954;2023-03-14T15:12:29;7.70;63.90
60353;DHT22;46196;52.970;6.954;2023-03-14T15:14:55;7.60;76.80
60353;DHT22;46196;52.970;6.954;2023-03-14T15:17:23;7.10;87.70
60353;DHT22;46196;52.970;6.954;2023-03-14T15:19:49;6.90;92.60
60353;DHT22;46196;52.970;6.954;2023-03-14T15:22:15;7.30;95.10
60353;DHT22;46196;52.970;6.954;2023-03-14T15:24:41;7.30;97.40
60353;DHT22;46196;52.970;6.954;2023-03-14T15:27:13;6.40;99.90
60353;DHT22;46196;52.970;6.954;2023-03-14T15:29:40;9.80;99.90
60353;DHT22;46196;52.970;6.954;2023-03-14T15:32:09;7.50;99.50
60353;DHT22;46196;52.970;6.954;2023-03-14T15:34:35;7.00;99.70
60353;DHT22;46196;52.970;6.954;2023-03-14T15:37:01;7.20;99.10
60353;DHT22;46196;52.970;6.954;2023-03-14T15:39:35;7.90;99.20
60353;DHT22;46196;52.970;6.954;2023-03-14T15:42:01;8.00;95.50
60353;DHT22;46196;52.970;6.954;2023-03-14T15:44:27;8.20;98.20
60353;DHT22;46196;52.970;6.954;2023-03-14T15:46:53;7.90;99.70
60353;DHT22;46196;52.970;6.954;2023-03-14T15:49:19;8.00;99.30
60353;DHT22;46196;52.970;6.954;2023-03-14T15:51:44;7.30;93.80
60353;DHT22;46196;52.970;6.954;2023-03-14T15:56:36;8.00;91.50
60353;DHT22;46196;52.970;6.954;2023-03-14T15:59:02;7.50;88.80
60353;DHT22;46196;52.970;6.954;2023-03-14T16:01:28;7.90;88.70
60353;DHT22;46196;52.970;6.954;2023-03-14T16:03:54;8.00;88.80
60353;DHT22;46196;52.970;6.954;2023-03-14T16:06:19;8.20;78.30
60353;DHT22;46196;52.970;6.954;2023-03-14T16:08:46;7.40;77.30
60353;DHT22;46196;52.970;6.954;2023-03-14T16:11:13;7.20;80.70
60353;DHT22;46196;52.970;6.954;2023-03-14T16:13:40;6.20;85.00
60353;DHT22;46196;52.970;6.954;2023-03-14T16:16:07;5.90;90.30
60353;DHT22;46196;52.970;6.954;2023-03-14T16:18:35;6.70;91.30
60353;DHT22;46196;52.970;6.954;2023-03-14T16:21:06;6.30;93.80
60353;DHT22;46196;52.970;6.954;2023-03-14T16:23:33;6.50;97.50
60353;DHT22;46196;52.970;6.954;2023-03-14T16:26:02;6.30;99.90
60353;DHT22;46196;52.970;6.954;2023-03-14T16:28:28;6.30;99.90
60353;DHT22;46196;52.970;6.954;2023-03-14T16:31:03;5.40;99.90
60353;DHT22;46196;52.970;6.954;2023-03-14T16:33:30;5.50;99.40
60353;DHT22;46196;52.970;6.954;2023-03-14T16:36:00;5.40;95.40
60353;DHT22;46196;52.970;6.954;2023-03-14T16:38:27;7.40;93.40
60353;DHT22;46196;52.970;6.954;2023-03-14T16:43:26;8.00;96.20
60353;DHT22;46196;52.970;6.954;2023-03-14T16:45:52;5.00;97.80
60353;DHT22;46196;52.970;6.954;2023-03-14T16:48:19;5.10;98.70
60353;DHT22;46196;52.970;6.954;2023-03-14T16:50:45;5.80;98.30
60353;DHT22;46196;52.970;6.954;2023-03-14T16:53:10;5.20;99.90
60353;DHT22;46196;52.970;6.954;2023-03-14T16:55:40;5.20;99.90
60353;DHT22;46196;52.970;6.954;2023-03-14T16:58:07;6.00;99.90
60353;DHT22;46196;52.970;6.954;2023-03-14T17:00:33;5.00;99.90
60353;DHT22;46196;52.970;6.954;2023-03-14T17:02:59;5.40;99.90
60353;DHT22;46196;52.970;6.954;2023-03-14T17:05:25;4.50;99.90
60353;DHT22;46196;52.970;6.954;2023-03-14T17:07:51;5.30;99.90
60353;DHT22;46196;52.970;6.954;2023-03-14T17:10:17;7.40;99.90
60353;DHT22;46196;52.970;6.954;2023-03-14T17:12:44;4.10;99.90
60353;DHT22;46196;52.970;6.954;2023-03-14T17:15:10;5.20;99.90
60353;DHT22;46196;52.970;6.954;2023-03-14T17:17:37;4.30;99.90
60353;DHT22;46196;52.970;6.954;2023-03-14T17:20:04;4.70;99.90
60353;DHT22;46196;52.970;6.954;2023-03-14T17:22:31;4.90;99.90